createdAt,value
2019-05-28T00:00:21.331Z,95617.28
2019-05-28T00:02:51.728Z,95617.50
2019-05-28T00:05:22.106Z,95611.49
2019-05-28T00:07:52.448Z,95615.16
2019-05-28T00:10:22.697Z,95614.42
2019-05-28T00:12:53.040Z,95607.25
2019-05-28T00:15:23.706Z,95609.70
2019-05-28T00:17:53.972Z,95605.70
2019-05-28T00:20:24.314Z,95603.58
2019-05-28T00:22:54.594Z,95599.05
2019-05-28T00:25:28.583Z,95591.45
2019-05-28T00:27:56.867Z,95594.68
2019-05-28T00:30:27.146Z,95591.60
2019-05-28T00:32:57.487Z,95591.13
2019-05-28T00:35:27.874Z,95585.28
2019-05-28T00:37:58.147Z,95586.89
2019-05-28T00:40:28.433Z,95581.28
2019-05-28T00:42:58.693Z,95579.67
2019-05-28T00:45:28.974Z,95578.86
2019-05-28T00:47:59.386Z,95574.47
2019-05-28T00:50:29.660Z,95573.30
2019-05-28T00:52:59.940Z,95573.52
2019-05-28T00:55:30.189Z,95568.55
2019-05-28T00:58:01.314Z,95563.05
2019-05-28T01:00:50.224Z,95560.70
2019-05-28T01:03:20.699Z,95563.16
2019-05-28T01:05:51.021Z,95554.92
2019-05-28T01:08:21.370Z,95550.74
2019-05-28T01:10:51.708Z,95552.44
2019-05-28T01:13:22.050Z,95546.75
2019-05-28T01:15:52.350Z,95541.16
2019-05-28T01:18:22.701Z,95539.47
2019-05-28T01:20:53.039Z,95541.45
2019-05-28T01:23:23.384Z,95539.25
2019-05-28T01:25:53.668Z,95534.05
2019-05-28T01:28:23.910Z,95533.13
2019-05-28T01:30:59.575Z,95522.70
2019-05-28T01:33:26.162Z,95525.12
2019-05-28T01:35:56.428Z,95515.83
2019-05-28T01:38:26.771Z,95516.05
2019-05-28T01:40:57.082Z,95510.63
2019-05-28T01:43:27.337Z,95513.59
2019-05-28T01:45:57.677Z,95509.64
2019-05-28T01:48:28.019Z,95510.66
2019-05-28T01:50:58.374Z,95514.58
2019-05-28T01:53:28.640Z,95510.15
2019-05-28T01:55:58.904Z,95508.31
2019-05-28T01:58:29.332Z,95506.16
2019-05-28T02:01:12.034Z,95505.58
2019-05-28T02:03:31.652Z,95503.37
2019-05-28T02:06:01.981Z,95504.70
2019-05-28T02:08:32.427Z,95504.25
2019-05-28T02:11:02.695Z,95493.20
2019-05-28T02:13:32.964Z,95495.10
2019-05-28T02:16:03.240Z,95498.11
2019-05-28T02:18:33.567Z,95494.05
2019-05-28T02:21:04.100Z,95490.09
2019-05-28T02:23:34.453Z,95488.78
2019-05-28T02:26:05.064Z,95483.51
2019-05-28T02:28:35.419Z,95489.66
2019-05-28T02:31:05.789Z,95487.75
2019-05-28T02:33:36.046Z,95485.00
2019-05-28T02:36:06.382Z,95485.45
2019-05-28T02:38:36.723Z,95481.97
2019-05-28T02:41:07.185Z,95482.48
2019-05-28T02:43:37.929Z,95479.27
2019-05-28T02:46:08.240Z,95474.80
2019-05-28T02:48:38.491Z,95478.86
2019-05-28T02:51:08.833Z,95477.14
2019-05-28T02:53:39.257Z,95474.22
2019-05-28T02:56:09.921Z,95474.80
2019-05-28T02:58:40.185Z,95473.19
2019-05-28T03:01:10.507Z,95468.72
2019-05-28T03:03:42.590Z,95466.56
2019-05-28T03:06:14.742Z,95469.31
2019-05-28T03:08:48.619Z,95474.58
2019-05-28T03:11:18.915Z,95464.84
2019-05-28T03:13:49.217Z,95470.33
2019-05-28T03:16:23.887Z,95471.36
2019-05-28T03:18:56.521Z,95466.31
2019-05-28T03:21:28.952Z,95470.92
2019-05-28T03:24:01.714Z,95468.39
2019-05-28T03:26:32.037Z,95473.77
2019-05-28T03:29:02.310Z,95467.36
2019-05-28T03:31:32.652Z,95466.27
2019-05-28T03:34:03.714Z,95462.09
2019-05-28T03:36:35.508Z,95459.72
2019-05-28T03:39:08.049Z,95464.48
2019-05-28T03:41:38.387Z,95463.67
2019-05-28T03:44:08.658Z,95461.95
2019-05-28T03:46:38.937Z,95453.65
2019-05-28T03:49:09.214Z,95462.65
2019-05-28T03:51:39.561Z,95459.57
2019-05-28T03:54:09.895Z,95457.78
2019-05-28T03:56:40.100Z,95452.52
2019-05-28T03:59:10.358Z,95453.02
2019-05-28T04:01:41.133Z,95455.63
2019-05-28T04:04:11.526Z,95459.68
2019-05-28T04:06:41.796Z,95457.05
2019-05-28T04:09:12.132Z,95456.75
2019-05-28T04:11:45.041Z,95459.39
2019-05-28T04:14:14.688Z,95453.16
2019-05-28T04:16:44.982Z,95464.77
2019-05-28T04:19:15.315Z,95463.30
2019-05-28T04:21:45.601Z,95455.14
2019-05-28T04:24:15.942Z,95457.89
2019-05-28T04:26:46.167Z,95450.53
2019-05-28T04:29:16.450Z,95455.00
2019-05-28T04:31:46.791Z,95457.45
2019-05-28T04:34:17.055Z,95456.42
2019-05-28T04:36:47.331Z,95451.66
2019-05-28T04:39:17.656Z,95450.41
2019-05-28T04:41:47.995Z,95443.24
2019-05-28T04:44:18.328Z,95444.85
2019-05-28T04:46:48.679Z,95441.01
2019-05-28T04:49:18.933Z,95447.23
2019-05-28T04:51:49.191Z,95446.05
2019-05-28T04:54:19.533Z,95447.08
2019-05-28T04:56:49.893Z,95446.97
2019-05-28T04:59:20.254Z,95449.98
2019-05-28T05:01:50.526Z,95446.41
2019-05-28T05:04:21.012Z,95448.63
2019-05-28T05:06:51.303Z,95452.73
2019-05-28T05:09:21.567Z,95448.97
2019-05-28T05:11:52.239Z,95452.00
2019-05-28T05:14:24.410Z,95454.02
2019-05-28T05:16:54.798Z,95449.59
2019-05-28T05:19:25.468Z,95454.12
2019-05-28T05:21:55.813Z,95457.05
2019-05-28T05:24:26.281Z,95456.31
2019-05-28T05:26:56.842Z,95457.34
2019-05-28T05:29:27.293Z,95464.84
2019-05-28T05:31:57.648Z,95466.96
2019-05-28T05:34:27.992Z,95467.00
2019-05-28T05:36:58.465Z,95465.17
2019-05-28T05:39:28.851Z,95463.63
2019-05-28T05:41:59.325Z,95459.45
2019-05-28T05:44:30.126Z,95466.63
2019-05-28T05:47:00.471Z,95463.58
2019-05-28T05:49:30.846Z,95471.81
2019-05-28T05:52:01.171Z,95464.02
2019-05-28T05:54:31.463Z,95465.98
2019-05-28T05:57:01.760Z,95460.11
2019-05-28T05:59:32.063Z,95468.24
2019-05-28T06:02:02.372Z,95468.34
2019-05-28T06:04:32.779Z,95469.47
2019-05-28T06:07:03.108Z,95470.50
2019-05-28T06:09:33.458Z,95473.42
2019-05-28T06:12:03.816Z,95481.73
2019-05-28T06:14:37.787Z,95478.99
2019-05-28T06:17:06.266Z,95478.64
2019-05-28T06:19:36.522Z,95471.02
2019-05-28T06:22:06.878Z,95473.00
2019-05-28T06:24:37.157Z,95476.00
2019-05-28T06:27:07.524Z,95475.13
2019-05-28T06:29:37.894Z,95476.70
2019-05-28T06:32:08.170Z,95479.15
2019-05-28T06:34:38.516Z,95475.70
2019-05-28T06:37:08.808Z,95480.25
2019-05-28T06:39:39.088Z,95475.81
2019-05-28T06:42:09.313Z,95471.79
2019-05-28T06:44:39.666Z,95478.28
2019-05-28T06:47:10.021Z,95478.28
2019-05-28T06:49:40.352Z,95492.53
2019-05-28T06:52:10.650Z,95478.45
2019-05-28T06:54:40.927Z,95490.80
2019-05-28T06:57:22.263Z,95489.89
2019-05-28T06:59:43.357Z,95482.81
2019-05-28T07:02:13.605Z,95483.97
2019-05-28T07:04:44.232Z,95486.41
2019-05-28T07:07:14.521Z,95489.95
2019-05-28T07:09:44.773Z,95484.45
2019-05-28T07:12:18.042Z,95486.98
2019-05-28T07:14:47.087Z,95489.74
2019-05-28T07:17:17.431Z,95490.66
2019-05-28T07:19:47.816Z,95488.59
2019-05-28T07:22:18.055Z,95491.23
2019-05-28T07:24:48.312Z,95484.84
2019-05-28T07:27:18.573Z,95493.22
2019-05-28T07:29:48.880Z,95492.90
2019-05-28T07:32:19.208Z,95489.08
2019-05-28T07:34:49.563Z,95488.81
2019-05-28T07:37:19.828Z,95489.02
2019-05-28T07:39:50.082Z,95488.27
2019-05-28T07:42:32.159Z,95484.09
2019-05-28T07:44:52.469Z,95493.79
2019-05-28T07:47:22.824Z,95489.34
2019-05-28T07:49:53.091Z,95484.35
2019-05-28T07:52:23.455Z,95489.98
2019-05-28T07:54:53.726Z,95487.08
2019-05-28T07:57:23.992Z,95486.56
2019-05-28T07:59:54.242Z,95493.66
2019-05-28T08:02:24.573Z,95491.81
2019-05-28T08:04:54.970Z,95493.45
2019-05-28T08:07:25.401Z,95496.55
2019-05-28T08:09:55.707Z,95491.98
2019-05-28T08:12:25.964Z,95490.52
2019-05-28T08:14:56.315Z,95498.58
2019-05-28T08:17:26.565Z,95492.70
2019-05-28T08:19:56.852Z,95500.60
2019-05-28T08:22:41.183Z,95503.32
2019-05-28T08:25:00.058Z,95499.68
2019-05-28T08:27:30.362Z,95499.23
2019-05-28T08:30:00.700Z,95492.96
2019-05-28T08:32:31.251Z,95499.22
2019-05-28T08:35:05.365Z,95500.48
2019-05-28T08:37:33.660Z,95504.67
2019-05-28T08:40:04.447Z,95502.77
2019-05-28T08:42:34.772Z,95501.05
2019-05-28T08:45:05.461Z,95510.23
2019-05-28T08:47:35.725Z,95513.30
2019-05-28T08:50:06.500Z,95516.56
2019-05-28T08:52:36.813Z,95514.11
2019-05-28T08:55:08.272Z,95514.34
2019-05-28T08:57:39.105Z,95510.64
2019-05-28T09:00:11.113Z,95512.83
2019-05-28T09:02:41.449Z,95508.05
2019-05-28T09:05:25.701Z,95510.61
2019-05-28T09:07:43.855Z,95512.09
2019-05-28T09:10:14.391Z,95509.28
2019-05-28T09:12:44.635Z,95511.84
2019-05-28T09:15:14.959Z,95517.13
2019-05-28T09:17:45.298Z,95515.60
2019-05-28T09:20:15.783Z,95520.77
2019-05-28T09:22:45.998Z,95512.91
2019-05-28T09:25:16.256Z,95511.28
2019-05-28T09:27:46.532Z,95512.59
2019-05-28T09:30:17.525Z,95513.70
2019-05-28T09:32:47.855Z,95519.00
2019-05-28T09:35:18.328Z,95519.80
2019-05-28T09:37:48.663Z,95523.53
2019-05-28T09:40:20.095Z,95522.00
2019-05-28T09:42:50.463Z,95525.82
2019-05-28T09:45:22.818Z,95532.66
2019-05-28T09:47:55.179Z,95536.98
2019-05-28T09:50:30.449Z,95535.83
2019-05-28T09:52:57.136Z,95538.08
2019-05-28T09:55:27.522Z,95541.33
2019-05-28T09:57:57.847Z,95545.19
2019-05-28T10:00:30.187Z,95538.98
2019-05-28T10:03:00.542Z,95541.45
2019-05-28T10:05:30.881Z,95543.40
2019-05-28T10:08:01.296Z,95537.53
2019-05-28T10:10:31.644Z,95541.80
2019-05-28T10:13:01.936Z,95550.89
2019-05-28T10:15:32.982Z,95548.12
2019-05-28T10:18:03.631Z,95549.50
2019-05-28T10:20:37.718Z,95551.67
2019-05-28T10:23:06.124Z,95552.28
2019-05-28T10:25:36.478Z,95565.33
2019-05-28T10:28:06.859Z,95569.64
2019-05-28T10:30:37.167Z,95560.77
2019-05-28T10:33:07.477Z,95571.66
2019-05-28T10:35:37.774Z,95568.96
2019-05-28T10:38:14.542Z,95575.41
2019-05-28T10:40:40.194Z,95574.25
2019-05-28T10:43:10.554Z,95574.78
2019-05-28T10:45:40.967Z,95578.92
2019-05-28T10:48:11.389Z,95584.05
2019-05-28T10:50:41.601Z,95588.91
2019-05-28T10:53:11.921Z,95595.41
2019-05-28T10:55:42.547Z,95598.05
2019-05-28T10:58:12.837Z,95596.36
2019-05-28T11:00:43.094Z,95599.70
2019-05-28T11:03:13.367Z,95602.13
2019-05-28T11:05:43.753Z,95597.38
2019-05-28T11:08:14.016Z,95597.38
2019-05-28T11:10:44.416Z,95603.86
2019-05-28T11:13:14.759Z,95601.56
2019-05-28T11:15:45.100Z,95606.09
2019-05-28T11:18:15.475Z,95606.88
2019-05-28T11:20:45.837Z,95605.16
2019-05-28T11:23:17.154Z,95608.64
2019-05-28T11:25:47.418Z,95611.33
2019-05-28T11:28:17.764Z,95609.00
2019-05-28T11:30:48.110Z,95611.64
2019-05-28T11:33:18.395Z,95610.22
2019-05-28T11:35:48.905Z,95613.14
2019-05-28T11:38:19.237Z,95617.89
2019-05-28T11:40:49.509Z,95618.77
2019-05-28T11:43:19.862Z,95617.98
2019-05-28T11:45:50.155Z,95618.69
2019-05-28T11:48:20.497Z,95625.25
2019-05-28T11:50:50.833Z,95621.66
2019-05-28T11:53:21.174Z,95625.00
2019-05-28T11:55:51.927Z,95620.07
2019-05-28T11:58:22.274Z,95628.55
2019-05-28T12:00:52.616Z,95626.50
2019-05-28T12:03:22.890Z,95633.78
2019-05-28T12:05:53.175Z,95632.95
2019-05-28T12:08:23.447Z,95640.16
2019-05-28T12:10:53.762Z,95637.06
2019-05-28T12:13:24.143Z,95641.63
2019-05-28T12:15:54.416Z,95641.09
2019-05-28T12:18:24.770Z,95645.14
2019-05-28T12:20:55.134Z,95650.80
2019-05-28T12:23:25.814Z,95651.83
2019-05-28T12:25:56.150Z,95651.26
2019-05-28T12:28:37.586Z,95660.62
2019-05-28T12:30:58.451Z,95663.06
2019-05-28T12:33:28.773Z,95661.31
2019-05-28T12:35:59.067Z,95655.87
2019-05-28T12:38:29.403Z,95654.98
2019-05-28T12:40:59.731Z,95656.25
2019-05-28T12:43:30.095Z,95663.03
2019-05-28T12:46:00.334Z,95660.12
2019-05-28T12:48:30.704Z,95663.91
2019-05-28T12:51:02.316Z,95665.75
2019-05-28T12:53:49.186Z,95668.29
2019-05-28T12:56:04.824Z,95664.14
2019-05-28T12:58:42.584Z,95668.50
2019-05-28T13:01:07.291Z,95672.02
2019-05-28T13:03:37.589Z,95671.66
2019-05-28T13:06:07.954Z,95674.45
2019-05-28T13:08:38.297Z,95679.84
2019-05-28T13:11:08.579Z,95686.11
2019-05-28T13:13:38.965Z,95685.30
2019-05-28T13:16:09.259Z,95683.00
2019-05-28T13:18:39.597Z,95684.17
2019-05-28T13:21:09.925Z,95695.68
2019-05-28T13:23:40.294Z,95700.97
2019-05-28T13:26:14.401Z,95701.48
2019-05-28T13:28:42.715Z,95702.55
2019-05-28T13:31:13.054Z,95710.46
2019-05-28T13:33:43.411Z,95709.44
2019-05-28T13:36:13.749Z,95714.75
2019-05-28T13:38:44.166Z,95717.81
2019-05-28T13:41:14.503Z,95714.55
2019-05-28T13:43:44.871Z,95710.09
2019-05-28T13:46:18.019Z,95710.77
2019-05-28T13:48:48.382Z,95724.91
2019-05-28T13:51:18.738Z,95723.53
2019-05-28T13:53:49.027Z,95726.36
2019-05-28T13:56:19.366Z,95726.84
2019-05-28T13:58:49.661Z,95732.23
2019-05-28T14:01:19.993Z,95733.61
2019-05-28T14:03:50.343Z,95730.69
2019-05-28T14:06:20.659Z,95738.60
2019-05-28T14:08:51.009Z,95748.49
2019-05-28T14:11:21.411Z,95749.64
2019-05-28T14:13:51.675Z,95746.53
2019-05-28T14:16:21.971Z,95747.67
2019-05-28T14:18:52.259Z,95753.98
2019-05-28T14:21:22.518Z,95759.73
2019-05-28T14:23:53.003Z,95762.30
2019-05-28T14:26:23.322Z,95761.98
2019-05-28T14:28:54.010Z,95756.90
2019-05-28T14:31:24.372Z,95757.90
2019-05-28T14:33:54.706Z,95758.92
2019-05-28T14:36:24.967Z,95763.29
2019-05-28T14:39:03.020Z,95770.06
2019-05-28T14:41:27.349Z,95768.68
2019-05-28T14:43:57.708Z,95761.81
2019-05-28T14:46:27.989Z,95770.77
2019-05-28T14:48:58.327Z,95773.18
2019-05-28T14:51:28.593Z,95775.84
2019-05-28T14:53:58.881Z,95771.14
2019-05-28T14:56:29.144Z,95768.80
2019-05-28T14:58:59.496Z,95772.02
2019-05-28T15:01:29.848Z,95777.52
2019-05-28T15:04:00.198Z,95779.81
2019-05-28T15:06:31.317Z,95779.94
2019-05-28T15:09:17.084Z,95788.90
2019-05-28T15:11:33.682Z,95790.27
2019-05-28T15:14:04.035Z,95800.14
2019-05-28T15:16:34.419Z,95807.27
2019-05-28T15:19:04.890Z,95808.98
2019-05-28T15:21:35.451Z,95818.25
2019-05-28T15:24:05.798Z,95815.25
2019-05-28T15:26:36.122Z,95813.95
2019-05-28T15:29:06.452Z,95822.40
2019-05-28T15:31:37.270Z,95827.98
2019-05-28T15:34:07.717Z,95832.75
2019-05-28T15:36:39.473Z,95830.20
2019-05-28T15:39:10.175Z,95830.29
2019-05-28T15:41:44.289Z,95832.20
2019-05-28T15:44:14.858Z,95840.06
2019-05-28T15:46:45.246Z,95837.07
2019-05-28T15:49:15.793Z,95841.45
2019-05-28T15:51:46.205Z,95842.62
2019-05-28T15:54:16.825Z,95845.09
2019-05-28T15:56:47.111Z,95845.94
2019-05-28T15:59:17.419Z,95857.30
2019-05-28T16:01:47.771Z,95848.19
2019-05-28T16:04:18.123Z,95852.36
2019-05-28T16:06:48.503Z,95852.32
2019-05-28T16:09:18.825Z,95854.31
2019-05-28T16:11:49.190Z,95859.00
2019-05-28T16:14:19.736Z,95856.23
2019-05-28T16:16:50.025Z,95855.64
2019-05-28T16:19:20.416Z,95865.38
2019-05-28T16:21:50.695Z,95877.63
2019-05-28T16:24:21.207Z,95878.64
2019-05-28T16:26:51.584Z,95884.78
2019-05-28T16:29:22.032Z,95878.48
2019-05-28T16:31:52.520Z,95888.17
2019-05-28T16:34:23.017Z,95891.96
2019-05-28T16:36:54.498Z,95893.23
2019-05-28T16:39:24.871Z,95893.90
2019-05-28T16:41:55.381Z,95885.39
2019-05-28T16:44:25.867Z,95893.89
2019-05-28T16:47:14.852Z,95887.80
2019-05-28T16:49:28.401Z,95891.09
2019-05-28T16:51:58.822Z,95894.47
2019-05-28T16:54:29.316Z,95889.99
2019-05-28T16:56:59.809Z,95889.94
2019-05-28T16:59:30.315Z,95891.09
2019-05-28T17:02:00.868Z,95898.88
2019-05-28T17:04:31.367Z,95902.97
2019-05-28T17:07:01.798Z,95900.27
2019-05-28T17:09:32.176Z,95901.08
2019-05-28T17:12:02.619Z,95906.64
2019-05-28T17:14:33.033Z,95905.16
2019-05-28T17:17:03.458Z,95910.13
2019-05-28T17:19:34.006Z,95910.00
2019-05-28T17:22:04.490Z,95916.44
2019-05-28T17:24:35.002Z,95919.97
2019-05-28T17:27:05.795Z,95923.19
2019-05-28T17:29:36.282Z,95925.59
2019-05-28T17:32:06.590Z,95923.32
2019-05-28T17:34:37.108Z,95929.91
2019-05-28T17:37:07.578Z,95928.57
2019-05-28T17:39:37.974Z,95932.22
2019-05-28T17:42:08.397Z,95933.42
2019-05-28T17:44:38.749Z,95941.69
2019-05-28T17:47:09.454Z,95940.02
2019-05-28T17:49:39.931Z,95949.09
2019-05-28T17:52:10.582Z,95951.84
2019-05-28T17:54:41.017Z,95955.23
2019-05-28T17:57:11.446Z,95962.38
2019-05-28T17:59:41.887Z,95961.52
2019-05-28T18:02:12.247Z,95963.52
2019-05-28T18:04:42.691Z,95965.11
2019-05-28T18:07:13.168Z,95959.17
2019-05-28T18:09:44.168Z,95967.08
2019-05-28T18:12:15.011Z,95975.97
2019-05-28T18:14:45.511Z,95974.05
2019-05-28T18:17:16.296Z,95975.16
2019-05-28T18:19:46.994Z,95980.84
2019-05-28T18:22:17.420Z,95987.05
2019-05-28T18:24:48.047Z,95988.38
2019-05-28T18:27:18.487Z,95983.98
2019-05-28T18:29:49.036Z,96000.58
2019-05-28T18:32:19.907Z,95988.18
2019-05-28T18:34:50.437Z,95991.86
2019-05-28T18:37:21.105Z,95996.53
2019-05-28T18:39:51.763Z,95999.16
2019-05-28T18:42:22.435Z,96001.55
2019-05-28T18:44:52.950Z,96004.43
2019-05-28T18:47:23.493Z,96005.48
2019-05-28T18:49:57.070Z,96003.58
2019-05-28T18:52:27.592Z,96003.41
2019-05-28T18:54:58.158Z,96007.50
2019-05-28T18:57:28.616Z,96015.20
2019-05-28T18:59:59.608Z,96019.30
2019-05-28T19:02:30.047Z,96022.97
2019-05-28T19:05:00.528Z,96027.60
2019-05-28T19:07:31.088Z,96026.22
2019-05-28T19:10:01.603Z,96039.04
2019-05-28T19:12:32.125Z,96044.41
2019-05-28T19:15:02.855Z,96052.42
2019-05-28T19:17:33.404Z,96049.92
2019-05-28T19:20:04.418Z,96048.93
2019-05-28T19:22:34.859Z,96044.48
2019-05-28T19:25:06.130Z,96046.70
2019-05-28T19:27:37.012Z,96052.89
2019-05-28T19:30:08.617Z,96060.30
2019-05-28T19:32:39.320Z,96059.26
2019-05-28T19:35:10.644Z,96062.02
2019-05-28T19:37:41.735Z,96075.86
2019-05-28T19:40:12.700Z,96073.97
2019-05-28T19:42:43.046Z,96076.47
2019-05-28T19:45:13.637Z,96073.33
2019-05-28T19:47:44.187Z,96078.60
2019-05-28T19:50:14.919Z,96087.61
2019-05-28T19:52:45.585Z,96090.63
2019-05-28T19:55:16.785Z,96101.15
2019-05-28T19:57:47.097Z,96096.00
2019-05-28T20:00:17.998Z,96101.15
2019-05-28T20:02:48.459Z,96096.91
2019-05-28T20:05:19.351Z,96096.91
2019-05-28T20:07:50.050Z,96089.44
2019-05-28T20:10:21.390Z,96084.81
2019-05-28T20:12:51.805Z,96091.59
2019-05-28T20:15:24.062Z,96098.67
2019-05-28T20:17:54.688Z,96088.66
2019-05-28T20:20:25.195Z,96099.06
2019-05-28T20:22:56.172Z,96104.86
2019-05-28T20:25:26.629Z,96105.63
2019-05-28T20:27:57.083Z,96108.68
2019-05-28T20:30:27.832Z,96110.50
2019-05-28T20:32:59.085Z,96112.89
2019-05-28T20:35:31.135Z,96117.52
2019-05-28T20:38:05.788Z,96118.23
2019-05-28T20:40:33.691Z,96122.17
2019-05-28T20:43:04.204Z,96129.94
2019-05-28T20:45:34.584Z,96120.44
2019-05-28T20:48:05.046Z,96124.36
2019-05-28T20:50:35.508Z,96137.49
2019-05-28T20:53:05.802Z,96143.75
2019-05-28T20:55:36.257Z,96138.80
2019-05-28T20:58:06.677Z,96138.19
2019-05-28T21:00:37.096Z,96142.42
2019-05-28T21:03:07.545Z,96142.70
2019-05-28T21:05:37.934Z,96135.77
2019-05-28T21:08:08.405Z,96135.14
2019-05-28T21:10:38.859Z,96138.77
2019-05-28T21:13:09.181Z,96137.45
2019-05-28T21:15:39.628Z,96139.39
2019-05-28T21:18:10.082Z,96140.19
2019-05-28T21:20:40.426Z,96141.40
2019-05-28T21:23:10.863Z,96142.02
2019-05-28T21:25:41.231Z,96149.08
2019-05-28T21:28:11.653Z,96151.20
2019-05-28T21:30:42.127Z,96155.45
2019-05-28T21:33:12.613Z,96153.42
2019-05-28T21:35:43.036Z,96157.67
2019-05-28T21:38:13.360Z,96157.08
2019-05-28T21:40:43.768Z,96162.33
2019-05-28T21:43:14.250Z,96161.30
2019-05-28T21:45:44.642Z,96169.17
2019-05-28T21:48:15.017Z,96170.48
2019-05-28T21:50:45.394Z,96173.42
2019-05-28T21:53:15.768Z,96182.62
2019-05-28T21:55:46.453Z,96179.78
2019-05-28T21:58:16.759Z,96180.47
2019-05-28T22:01:00.046Z,96180.88
2019-05-28T22:03:30.528Z,96185.19
2019-05-28T22:06:01.459Z,96181.25
2019-05-28T22:08:31.904Z,96186.51
2019-05-28T22:11:02.265Z,96183.69
2019-05-28T22:13:32.723Z,96183.48
2019-05-28T22:16:04.317Z,96184.66
2019-05-28T22:18:34.976Z,96181.45
2019-05-28T22:21:05.466Z,96176.48
2019-05-28T22:23:35.974Z,96173.48
2019-05-28T22:26:06.396Z,96173.59
2019-05-28T22:28:36.854Z,96174.37
2019-05-28T22:31:08.116Z,96175.79
2019-05-28T22:33:38.623Z,96175.98
2019-05-28T22:36:09.111Z,96181.14
2019-05-28T22:38:39.627Z,96188.39
2019-05-28T22:41:10.004Z,96182.83
2019-05-28T22:43:40.393Z,96188.08
2019-05-28T22:46:10.825Z,96186.86
2019-05-28T22:48:41.235Z,96185.42
2019-05-28T22:51:11.632Z,96182.39
2019-05-28T22:53:42.027Z,96179.77
2019-05-28T22:56:12.535Z,96178.83
2019-05-28T22:58:42.793Z,96180.55
2019-05-28T23:01:13.266Z,96179.55
2019-05-28T23:03:43.776Z,96180.23
2019-05-28T23:06:14.257Z,96184.17
2019-05-28T23:08:44.723Z,96177.61
2019-05-28T23:11:15.134Z,96183.17
2019-05-28T23:13:47.060Z,96184.55
2019-05-28T23:16:17.754Z,96178.08
2019-05-28T23:18:48.166Z,96181.52
2019-05-28T23:21:18.590Z,96185.77
2019-05-28T23:23:48.961Z,96187.57
2019-05-28T23:26:19.417Z,96191.20
2019-05-28T23:28:49.746Z,96193.45
2019-05-28T23:31:20.146Z,96195.35
2019-05-28T23:33:50.567Z,96203.53
2019-05-28T23:36:21.044Z,96202.73
2019-05-28T23:38:51.446Z,96208.28
2019-05-28T23:41:21.896Z,96212.72
2019-05-28T23:44:01.542Z,96212.72
2019-05-28T23:46:24.543Z,96213.03
2019-05-28T23:48:55.755Z,96214.03
2019-05-28T23:51:26.165Z,96214.84
2019-05-28T23:53:56.639Z,96209.19
2019-05-28T23:56:27.034Z,96214.13
2019-05-28T23:58:57.467Z,96211.19
